Time;durP1;ratioP1;P1;durP2;ratioP2;P2;SDS_P1;SDS_P2;PMS_P1;PMS_P2;Temp;Humidity;BMP_temperature;BMP_pressure;BME280_temperature;BME280_humidity;BME280_pressure;Samples;Min_cycle;Max_cycle;Signal;HPM_P1;HPM_P2
2023/07/31 00:02:05;;;;;;;25.27;10.30;;;;;;;15.71;100.00;100974.88;5029315;28;20033;-77
2023/07/31 00:04:31;;;;;;;28.83;10.07;;;;;;;15.71;100.00;100980.19;5012149;28;20060;-77
2023/07/31 00:06:56;;;;;;;25.02;8.98;;;;;;;15.71;100.00;100982.84;5010362;28;20033;-77
2023/07/31 00:09:22;;;;;;;30.58;9.40;;;;;;;15.70;100.00;100967.91;5025929;28;20010;-77
2023/07/31 00:11:47;;;;;;;23.48;8.70;;;;;;;15.70;100.00;100976.69;5029377;28;20673;-77
2023/07/31 00:14:13;;;;;;;27.30;9.35;;;;;;;15.69;100.00;100972.38;5012532;28;20084;-77
2023/07/31 00:16:38;;;;;;;25.73;9.10;;;;;;;15.70;100.00;100979.34;5028890;28;20029;-77
2023/07/31 00:19:03;;;;;;;20.40;9.07;;;;;;;15.69;100.00;100984.78;5027826;28;20025;-77
2023/07/31 00:21:29;;;;;;;22.70;8.68;;;;;;;15.68;100.00;100973.34;5011684;28;20060;-77
2023/07/31 00:23:54;;;;;;;20.13;8.25;;;;;;;15.68;100.00;100977.81;5029400;28;20667;-77
2023/07/31 00:26:20;;;;;;;21.50;8.18;;;;;;;15.66;100.00;100973.50;5029159;28;20381;-77
2023/07/31 00:28:45;;;;;;;23.00;9.25;;;;;;;15.69;100.00;100974.19;5024164;28;20022;-77
2023/07/31 00:31:10;;;;;;;21.30;8.88;;;;;;;15.69;100.00;100969.72;5027517;28;20048;-77
2023/07/31 00:33:36;;;;;;;26.35;9.35;;;;;;;15.66;100.00;100970.84;5029567;28;20482;-77
2023/07/31 00:36:02;;;;;;;18.70;7.78;;;;;;;15.66;100.00;100970.84;5029000;28;20033;-77
2023/07/31 00:38:27;;;;;;;18.02;8.32;;;;;;;15.66;100.00;100976.16;5028378;28;20227;-77
2023/07/31 00:40:53;;;;;;;25.83;8.93;;;;;;;15.68;100.00;100969.84;5010582;28;20397;-77
2023/07/31 00:43:18;;;;;;;21.17;8.20;;;;;;;15.69;100.00;100974.19;5028383;28;20036;-77
2023/07/31 00:45:44;;;;;;;21.83;8.27;;;;;;;15.69;100.00;100968.88;5019703;28;20116;-77
2023/07/31 00:48:09;;;;;;;24.25;8.70;;;;;;;15.68;100.00;100964.56;4992478;28;20033;-77
2023/07/31 00:50:35;;;;;;;20.27;8.10;;;;;;;15.66;100.00;100962.88;4993420;28;20030;-77
2023/07/31 00:53:00;;;;;;;20.48;8.13;;;;;;;15.64;100.00;100962.19;4995339;28;20026;-78
2023/07/31 00:55:26;;;;;;;22.98;8.40;;;;;;;15.65;100.00;100968.34;4992321;28;20490;-77
2023/07/31 00:57:57;;;;;;;19.88;7.65;;;;;;;15.64;100.00;100970.16;5028282;28;20041;-77
2023/07/31 01:00:22;;;;;;;19.08;7.85;;;;;;;15.64;100.00;100956.88;5020242;28;20088;-77
2023/07/31 01:02:50;;;;;;;21.75;8.02;;;;;;;15.64;100.00;100959.53;5013740;28;20490;-78
2023/07/31 01:05:15;;;;;;;19.52;7.50;;;;;;;15.65;100.00;100952.41;5022076;28;20308;-77
2023/07/31 01:08:02;;;;;;;20.27;7.35;;;;;;;15.64;100.00;100962.19;5009486;28;20477;-77
2023/07/31 01:10:34;;;;;;;21.25;7.38;;;;;;;15.64;100.00;100959.53;5018380;28;20333;-78
2023/07/31 01:13:03;;;;;;;24.83;8.25;;;;;;;15.64;100.00;100958.69;5006548;28;20030;-78
2023/07/31 01:15:28;;;;;;;22.00;7.70;;;;;;;15.65;100.00;100952.41;5020582;28;20080;-76
2023/07/31 01:17:54;;;;;;;24.45;7.25;;;;;;;15.64;100.00;100956.03;5008340;28;20022;-76
2023/07/31 01:20:28;;;;;;;19.50;7.65;;;;;;;15.62;100.00;100955.34;5008844;28;20022;-77
2023/07/31 01:23:14;;;;;;;20.88;7.53;;;;;;;15.62;100.00;100955.34;5011834;28;20050;-77
2023/07/31 01:26:18;;;;;;;18.55;6.70;;;;;;;15.61;100.00;100959.00;5028860;28;20025;-77
2023/07/31 01:29:17;;;;;;;17.83;7.05;;;;;;;15.61;100.00;100946.56;4976055;28;20023;-77
2023/07/31 01:31:45;;;;;;;20.35;7.50;;;;;;;15.59;100.00;100956.44;5025685;28;20033;-78
2023/07/31 01:34:12;;;;;;;18.50;7.22;;;;;;;15.59;100.00;100955.59;5026728;28;20108;-78
2023/07/31 01:36:38;;;;;;;25.25;8.57;;;;;;;15.60;100.00;100957.28;5016260;28;20081;-77
2023/07/31 01:39:03;;;;;;;20.17;7.03;;;;;;;15.57;100.00;100950.41;5009410;28;20030;-77
2023/07/31 01:41:29;;;;;;;19.95;7.57;;;;;;;15.59;100.00;100945.84;5011803;28;20041;-77
2023/07/31 01:43:54;;;;;;;23.55;8.52;;;;;;;15.56;100.00;100946.09;5018920;28;20029;-77
2023/07/31 01:46:20;;;;;;;16.92;6.93;;;;;;;15.54;100.00;100950.72;5028252;28;20030;-77
2023/07/31 01:48:45;;;;;;;21.67;7.53;;;;;;;15.55;100.00;100952.38;5026913;28;20032;-77
2023/07/31 01:51:10;;;;;;;18.27;7.47;;;;;;;15.53;100.00;100953.50;5026208;28;20044;-77
2023/07/31 01:53:36;;;;;;;19.27;7.07;;;;;;;15.51;100.00;100945.69;5008572;28;20014;-77
2023/07/31 01:56:01;;;;;;;17.58;7.45;;;;;;;15.49;100.00;100939.69;4998735;28;20025;-78
2023/07/31 01:58:27;;;;;;;20.35;7.53;;;;;;;15.48;100.00;100940.69;4997550;28;20493;-77
2023/07/31 02:00:52;;;;;;;23.95;8.35;;;;;;;15.47;100.00;100933.69;5033316;28;20029;-77
2023/07/31 02:03:17;;;;;;;22.15;8.40;;;;;;;15.46;100.00;100932.03;5013362;28;20477;-78
2023/07/31 02:05:48;;;;;;;19.00;7.40;;;;;;;15.44;100.00;100927.84;5015583;28;20033;-77
2023/07/31 02:08:14;;;;;;;19.50;7.18;;;;;;;15.43;100.00;100921.72;5010825;28;20029;-77
2023/07/31 02:10:39;;;;;;;23.33;7.85;;;;;;;15.43;100.00;100916.41;5031947;28;20509;-77
2023/07/31 02:13:08;;;;;;;19.75;7.45;;;;;;;15.42;100.00;100919.19;5015378;28;20068;-78
2023/07/31 02:15:34;;;;;;;20.08;7.63;;;;;;;15.42;100.00;100920.03;5032023;28;20025;-77
2023/07/31 02:18:00;;;;;;;20.23;7.25;;;;;;;15.38;100.00;100913.34;5029880;28;20116;-77
2023/07/31 02:20:25;;;;;;;20.65;7.82;;;;;;;15.37;100.00;100906.38;5014624;28;20116;-77
2023/07/31 02:22:51;;;;;;;21.02;7.65;;;;;;;15.38;100.00;100913.34;5031601;28;20033;-77
2023/07/31 02:25:16;;;;;;;20.27;7.60;;;;;;;15.38;100.00;100896.59;5022193;28;20113;-79
2023/07/31 02:27:42;;;;;;;23.20;7.72;;;;;;;15.36;100.00;100894.09;5027156;28;20029;-78
2023/07/31 02:30:11;;;;;;;23.23;7.80;;;;;;;15.35;100.00;100898.56;5027662;28;20331;-78
2023/07/31 02:32:36;;;;;;;22.92;8.07;;;;;;;15.34;100.00;100893.41;5031786;28;20033;-78
2023/07/31 02:35:01;;;;;;;22.33;8.45;;;;;;;15.35;100.00;100895.06;5030824;28;20024;-77
2023/07/31 02:37:28;;;;;;;25.48;8.35;;;;;;;15.35;100.00;100889.78;5031500;28;20048;-78
2023/07/31 02:39:54;;;;;;;19.13;8.10;;;;;;;15.35;100.00;100881.81;5014365;28;20025;-77
2023/07/31 02:42:19;;;;;;;17.33;7.72;;;;;;;15.35;100.00;100887.13;5011724;28;20323;-78
2023/07/31 02:44:44;;;;;;;19.98;7.70;;;;;;;15.34;100.00;100877.50;5030024;28;20053;-78
2023/07/31 02:47:10;;;;;;;19.52;7.72;;;;;;;15.34;100.00;100882.81;5012793;28;20120;-78
2023/07/31 02:49:35;;;;;;;21.30;8.57;;;;;;;15.32;100.00;100884.75;5030789;28;20021;-78
2023/07/31 02:52:00;;;;;;;20.88;8.05;;;;;;;15.32;100.00;100882.13;5031078;28;20541;-78
2023/07/31 02:54:26;;;;;;;18.35;8.18;;;;;;;15.32;100.00;100882.13;5031186;28;20087;-78
2023/07/31 02:56:51;;;;;;;18.95;8.02;;;;;;;15.31;100.00;100880.44;5003180;28;20025;-77
2023/07/31 02:59:17;;;;;;;20.48;8.05;;;;;;;15.30;100.00;100890.22;5006830;28;20049;-78
2023/07/31 03:01:43;;;;;;;15.55;7.47;;;;;;;15.32;100.00;100882.13;5030838;28;20096;-77
2023/07/31 03:04:08;;;;;;;18.85;7.85;;;;;;;15.30;100.00;100881.41;5012861;28;20045;-78
2023/07/31 03:06:33;;;;;;;19.48;7.88;;;;;;;15.31;100.00;100880.44;5031810;28;20032;-78
2023/07/31 03:08:59;;;;;;;17.30;7.07;;;;;;;15.32;100.00;100876.81;5012287;28;20018;-78
2023/07/31 03:11:24;;;;;;;19.30;7.60;;;;;;;15.30;100.00;100881.41;5026236;28;20148;-78
2023/07/31 03:13:49;;;;;;;25.10;7.70;;;;;;;15.31;100.00;100875.97;5000284;28;20022;-78
2023/07/31 03:16:15;;;;;;;19.15;7.43;;;;;;;15.30;100.00;100878.78;5021986;28;20034;-79
2023/07/31 03:18:40;;;;;;;24.45;8.38;;;;;;;15.30;100.00;100878.78;5032325;28;20029;-78
2023/07/31 03:21:06;;;;;;;19.80;8.30;;;;;;;15.31;100.00;100872.47;5030098;28;20044;-78
2023/07/31 03:23:31;;;;;;;16.73;7.70;;;;;;;15.29;100.00;100875.28;5014217;28;20673;-78
2023/07/31 03:26:02;;;;;;;18.95;7.43;;;;;;;15.30;100.00;100873.47;5031059;28;20449;-78
2023/07/31 03:28:28;;;;;;;21.27;7.65;;;;;;;15.31;100.00;100867.19;5021993;28;20021;-78
2023/07/31 03:30:53;;;;;;;20.15;7.82;;;;;;;15.32;100.00;100867.03;4996963;28;20038;-77
2023/07/31 03:33:19;;;;;;;20.98;7.90;;;;;;;15.34;100.00;100861.59;5017211;28;20112;-78
2023/07/31 03:35:45;;;;;;;19.52;7.53;;;;;;;15.34;100.00;100853.63;5028435;28;20466;-79
2023/07/31 03:38:10;;;;;;;20.42;7.70;;;;;;;15.34;100.00;100849.16;5009086;28;20025;-77
2023/07/31 03:40:36;;;;;;;20.88;7.60;;;;;;;15.36;100.00;100846.38;5028328;28;20018;-78
2023/07/31 03:43:01;;;;;;;16.73;7.82;;;;;;;15.36;100.00;100856.97;5029680;28;20060;-78
2023/07/31 03:45:26;;;;;;;20.95;7.40;;;;;;;15.37;100.00;100850.69;5027928;28;20090;-77
2023/07/31 03:47:53;;;;;;;19.70;7.57;;;;;;;15.39;100.00;100840.78;5012821;28;20017;-77
2023/07/31 03:50:19;;;;;;;18.83;7.47;;;;;;;15.41;100.00;100843.28;5015836;28;20043;-77
2023/07/31 03:52:44;;;;;;;17.77;6.82;;;;;;;15.42;100.00;100847.59;5030146;28;20040;-78
2023/07/31 03:55:09;;;;;;;17.17;6.80;;;;;;;15.43;100.00;100836.84;5028819;28;20104;-77
2023/07/31 03:57:35;;;;;;;17.02;7.13;;;;;;;15.45;100.00;100828.75;5027466;28;20029;-78
2023/07/31 04:00:00;;;;;;;24.88;8.15;;;;;;;15.45;100.00;100828.75;5019210;28;20060;-78
2023/07/31 04:02:27;;;;;;;20.45;7.70;;;;;;;15.47;100.00;100827.63;5028096;28;20076;-78
2023/07/31 04:04:53;;;;;;;25.33;7.78;;;;;;;15.48;100.00;100813.38;4993017;28;20053;-78
2023/07/31 04:07:18;;;;;;;21.13;7.35;;;;;;;15.49;100.00;100819.53;5014919;28;20486;-78
2023/07/31 04:09:44;;;;;;;22.95;7.72;;;;;;;15.50;100.00;100806.13;5029946;28;20025;-78
2023/07/31 04:12:09;;;;;;;16.23;7.38;;;;;;;15.53;100.00;100811.13;5012079;28;20394;-80
2023/07/31 04:14:34;;;;;;;19.52;7.53;;;;;;;15.55;100.00;100811.81;5030930;28;20028;-78
2023/07/31 04:17:00;;;;;;;17.52;7.10;;;;;;;15.58;100.00;100808.91;5012330;28;20087;-78
2023/07/31 04:19:25;;;;;;;17.02;7.20;;;;;;;15.59;100.00;100805.25;5028082;28;20266;-78
2023/07/31 04:21:50;;;;;;;19.23;6.88;;;;;;;15.61;100.00;100800.69;5010130;28;20040;-78
2023/07/31 04:24:22;;;;;;;19.02;6.35;;;;;;;15.64;100.00;100800.38;5010137;28;20125;-79
2023/07/31 04:26:47;;;;;;;18.90;7.10;;;;;;;15.66;100.00;100803.72;5030677;28;20025;-79
2023/07/31 04:29:12;;;;;;;20.60;6.65;;;;;;;15.71;100.00;100797.97;5015824;28;20037;-79
2023/07/31 04:31:38;;;;;;;24.33;7.20;;;;;;;15.76;100.00;100802.84;5014247;28;20037;-79
2023/07/31 04:34:03;;;;;;;18.23;7.72;;;;;;;15.78;100.00;100798.22;5033450;28;20029;-79
2023/07/31 04:36:28;;;;;;;18.83;6.75;;;;;;;15.78;100.00;100791.09;5026424;28;20036;-79
2023/07/31 04:38:54;;;;;;;21.63;6.95;;;;;;;15.80;100.00;100785.63;5029616;28;20394;-80
2023/07/31 04:41:19;;;;;;;18.02;7.25;;;;;;;15.79;100.00;100783.97;5012570;28;20453;-79
2023/07/31 04:43:45;;;;;;;18.88;7.40;;;;;;;15.79;100.00;100784.78;5029739;28;20036;-79
2023/07/31 04:46:10;;;;;;;19.77;7.47;;;;;;;15.79;100.00;100781.31;5012295;28;20033;-79
2023/07/31 04:48:35;;;;;;;21.20;7.10;;;;;;;15.80;100.00;100769.72;5012695;28;20439;-79
2023/07/31 04:51:01;;;;;;;18.30;7.50;;;;;;;15.82;100.00;100773.06;5028431;28;20033;-79
2023/07/31 04:53:26;;;;;;;19.08;7.18;;;;;;;15.84;100.00;100776.38;5026712;28;20327;-79
2023/07/31 04:55:52;;;;;;;16.90;7.43;;;;;;;15.85;100.00;100773.59;5022810;28;20022;-79
2023/07/31 04:58:17;;;;;;;12.60;7.03;;;;;;;15.86;100.00;100771.75;5011879;28;20029;-79
2023/07/31 05:00:42;;;;;;;16.80;6.68;;;;;;;15.88;100.00;100764.50;5021887;28;20080;-80
2023/07/31 05:03:08;;;;;;;15.60;8.02;;;;;;;15.89;100.00;100763.50;5029664;28;20079;-79
2023/07/31 05:05:33;;;;;;;18.27;7.88;;;;;;;15.89;100.00;100763.50;5028312;28;20033;-79
2023/07/31 05:07:59;;;;;;;23.55;7.45;;;;;;;15.90;100.00;100759.88;5011139;28;20444;-78
2023/07/31 05:10:24;;;;;;;16.40;7.22;;;;;;;15.89;100.00;100752.88;5013477;28;20025;-79
2023/07/31 05:12:50;;;;;;;15.40;7.63;;;;;;;15.91;100.00;100748.25;5028966;28;20104;-78
2023/07/31 05:15:15;;;;;;;19.23;7.80;;;;;;;15.91;100.00;100750.91;5029504;28;20028;-78
2023/07/31 05:17:43;;;;;;;14.23;6.90;;;;;;;15.90;100.00;100754.56;5029817;28;20477;-77
2023/07/31 05:20:09;;;;;;;16.95;6.97;;;;;;;15.89;100.00;100758.19;5028157;28;20030;-77
2023/07/31 05:22:34;;;;;;;16.33;6.82;;;;;;;15.88;100.00;100757.34;5027452;28;20037;-77
2023/07/31 05:25:00;;;;;;;13.00;6.60;;;;;;;15.90;100.00;100765.16;5025068;28;20036;-78
2023/07/31 05:27:25;;;;;;;12.70;6.60;;;;;;;15.90;100.00;100755.38;5024856;28;20041;-77
2023/07/31 05:29:53;;;;;;;10.10;6.05;;;;;;;15.91;100.00;100769.50;5005377;28;20032;-77
2023/07/31 05:32:19;;;;;;;13.82;6.10;;;;;;;15.91;100.00;100756.22;5026933;28;20068;-76
2023/07/31 05:34:44;;;;;;;11.30;6.20;;;;;;;15.89;100.00;100755.53;5031552;28;20045;-77
2023/07/31 05:37:11;;;;;;;15.90;6.68;;;;;;;15.87;100.00;100760.16;5028691;28;20112;-77
2023/07/31 05:39:36;;;;;;;11.45;5.88;;;;;;;15.85;100.00;100751.53;5031843;28;20472;-77
2023/07/31 05:42:02;;;;;;;14.35;5.93;;;;;;;15.81;100.00;100747.50;5032841;28;20013;-76
2023/07/31 05:44:30;;;;;;;10.50;5.35;;;;;;;15.79;100.00;100745.00;5024934;28;20375;-76
2023/07/31 05:46:56;;;;;;;9.20;5.22;;;;;;;15.81;100.00;100739.53;5032449;28;20540;-76
2023/07/31 05:49:21;;;;;;;8.52;4.50;;;;;;;15.79;100.00;100741.50;5032538;28;20018;-76
2023/07/31 05:51:46;;;;;;;10.43;5.00;;;;;;;15.76;100.00;100739.16;5032085;28;20044;-77
2023/07/31 05:54:12;;;;;;;7.55;4.35;;;;;;;15.74;100.00;100728.69;5030845;28;20041;-77
2023/07/31 05:56:37;;;;;;;9.25;4.63;;;;;;;15.73;100.00;100735.00;5030954;28;20030;-76
2023/07/31 05:59:02;;;;;;;8.73;4.78;;;;;;;15.74;100.00;100728.69;5042345;28;20022;-76
2023/07/31 06:01:28;;;;;;;7.60;4.70;;;;;;;15.74;100.00;100725.22;5027624;28;20041;-77
2023/07/31 06:03:53;;;;;;;7.93;4.38;;;;;;;15.72;100.00;100725.38;5032012;28;21356;-77
2023/07/31 06:06:24;;;;;;;7.82;4.30;;;;;;;15.71;100.00;100722.88;5031596;28;20100;-76
2023/07/31 06:08:49;;;;;;;8.27;4.35;;;;;;;15.72;100.00;100730.66;5012730;28;20433;-77
2023/07/31 06:11:15;;;;;;;6.88;4.10;;;;;;;15.72;100.00;100732.50;5033285;28;20052;-78
2023/07/31 06:13:40;;;;;;;6.10;4.13;;;;;;;15.72;100.00;100725.38;5031433;28;20044;-77
2023/07/31 06:16:06;;;;;;;8.40;4.30;;;;;;;15.72;100.00;100724.53;5027958;28;20036;-79
2023/07/31 06:18:32;;;;;;;6.93;3.97;;;;;;;15.72;100.00;100719.22;5023211;28;20028;-78
2023/07/31 06:20:58;;;;;;;6.13;4.13;;;;;;;15.73;100.00;100715.59;5026675;28;20036;-76
2023/07/31 06:23:23;;;;;;;5.35;3.85;;;;;;;15.76;100.00;100710.81;5012726;28;20037;-76
2023/07/31 06:25:51;;;;;;;6.63;4.28;;;;;;;15.76;100.00;100707.31;5031509;28;20068;-75
2023/07/31 06:28:16;;;;;;;7.10;4.32;;;;;;;15.77;100.00;100712.47;5024290;28;20040;-76
2023/07/31 06:30:42;;;;;;;5.18;4.43;;;;;;;15.79;100.00;100714.97;5012044;28;20116;-75
2023/07/31 06:33:10;;;;;;;6.28;4.82;;;;;;;15.79;100.00;100713.16;5029237;28;20037;-76
2023/07/31 06:35:38;;;;;;;7.28;4.95;;;;;;;15.83;100.00;100714.53;5013370;28;20029;-76
2023/07/31 06:38:04;;;;;;;7.38;4.88;;;;;;;15.85;100.00;100711.72;5029405;28;20080;-77
2023/07/31 06:40:30;;;;;;;9.73;5.35;;;;;;;15.87;100.00;100712.41;5026485;28;20037;-76
2023/07/31 06:42:55;;;;;;;8.88;5.40;;;;;;;15.89;100.00;100700.66;5014923;28;20397;-76
2023/07/31 06:45:24;;;;;;;5.57;4.68;;;;;;;15.88;100.00;100704.28;5029299;28;20082;-75
2023/07/31 06:47:49;;;;;;;7.43;5.28;;;;;;;15.90;100.00;100702.31;5032291;28;20385;-75
2023/07/31 06:50:15;;;;;;;7.75;5.15;;;;;;;15.88;100.00;100683.06;5004833;28;20025;-75
2023/07/31 06:52:40;;;;;;;9.70;4.65;;;;;;;15.91;100.00;100688.06;5012817;28;20034;-76
2023/07/31 06:55:21;;;;;;;7.35;4.80;;;;;;;15.92;100.00;100688.91;5012662;28;20033;-76
2023/07/31 06:57:48;;;;;;;7.57;4.68;;;;;;;15.91;100.00;100692.53;5011810;28;20022;-75
2023/07/31 07:00:14;;;;;;;5.75;4.57;;;;;;;15.91;100.00;100696.03;4994428;28;20072;-75
2023/07/31 07:02:40;;;;;;;6.95;4.65;;;;;;;15.93;100.00;100698.53;5027383;28;20033;-76
2023/07/31 07:05:08;;;;;;;5.13;4.25;;;;;;;15.95;100.00;100689.44;5033205;28;20178;-76
2023/07/31 07:07:37;;;;;;;6.63;4.63;;;;;;;15.97;100.00;100686.63;5016517;28;20034;-75
2023/07/31 07:10:04;;;;;;;5.50;4.55;;;;;;;15.98;100.00;100675.03;5014080;28;20037;-75
2023/07/31 07:12:31;;;;;;;5.75;4.25;;;;;;;16.06;100.00;100679.59;5031587;28;20029;-76
2023/07/31 07:14:59;;;;;;;9.73;4.43;;;;;;;16.06;100.00;100680.41;5032079;28;20026;-76
2023/07/31 07:17:29;;;;;;;5.65;4.13;;;;;;;16.03;100.00;100675.44;5014209;28;20029;-76
2023/07/31 07:19:55;;;;;;;5.78;4.10;;;;;;;16.06;100.00;100667.16;5012617;28;20470;-76
2023/07/31 07:22:21;;;;;;;6.50;4.60;;;;;;;16.08;100.00;100670.47;5029527;28;20026;-76
2023/07/31 07:24:48;;;;;;;7.93;4.68;;;;;;;16.07;100.00;100667.97;5015517;28;20036;-75
2023/07/31 07:27:14;;;;;;;7.53;4.93;;;;;;;16.09;100.00;100668.66;5009948;28;20104;-76
2023/07/31 07:29:40;;;;;;;6.10;4.53;;;;;;;16.05;100.00;100665.47;5030126;28;20163;-76
2023/07/31 07:32:06;;;;;;;7.05;4.57;;;;;;;16.06;100.00;100667.16;5029867;28;20041;-76
2023/07/31 07:34:31;;;;;;;7.70;5.20;;;;;;;16.07;100.00;100666.16;5029376;28;20022;-75
2023/07/31 07:36:56;;;;;;;8.32;4.80;;;;;;;16.09;100.00;100669.50;5028670;28;20193;-76
2023/07/31 07:39:22;;;;;;;8.13;5.28;;;;;;;16.10;100.00;100681.78;5005140;28;20022;-75
2023/07/31 07:41:47;;;;;;;10.45;5.30;;;;;;;16.12;100.00;100677.16;5021812;28;20029;-76
2023/07/31 07:44:14;;;;;;;8.82;5.93;;;;;;;16.12;100.00;100674.50;5022713;28;20021;-75
2023/07/31 07:46:39;;;;;;;9.23;5.80;;;;;;;16.11;100.00;100672.00;5029844;28;20033;-76
2023/07/31 07:49:05;;;;;;;9.68;6.10;;;;;;;16.15;100.00;100674.19;5031012;28;20104;-76
2023/07/31 07:51:31;;;;;;;9.88;5.90;;;;;;;16.15;100.00;100673.34;5028787;28;20060;-76
2023/07/31 07:53:57;;;;;;;10.40;6.05;;;;;;;16.15;100.00;100668.03;5029800;28;20049;-75
2023/07/31 07:56:24;;;;;;;8.23;6.03;;;;;;;16.15;100.00;100668.88;5030015;28;20103;-76
2023/07/31 07:58:50;;;;;;;9.10;5.88;;;;;;;16.12;100.00;100669.19;5019263;28;20084;-76
2023/07/31 08:01:15;;;;;;;11.13;6.30;;;;;;;16.14;100.00;100659.25;5026571;28;20033;-76
2023/07/31 08:03:43;;;;;;;10.00;6.25;;;;;;;16.15;100.00;100668.03;5016605;28;20536;-76
2023/07/31 08:06:10;;;;;;;11.77;6.30;;;;;;;16.14;100.00;100674.34;5011413;28;20033;-76
2023/07/31 08:08:36;;;;;;;9.77;6.15;;;;;;;16.14;100.00;100661.91;5010944;28;20027;-76
2023/07/31 08:11:01;;;;;;;10.60;7.00;;;;;;;16.18;100.00;100663.25;5028696;28;20979;-76
2023/07/31 08:13:27;;;;;;;9.70;6.13;;;;;;;16.15;100.00;100660.91;5030593;28;20744;-76
2023/07/31 08:15:52;;;;;;;12.98;6.53;;;;;;;16.16;100.00;100664.41;5028897;28;20093;-77
2023/07/31 08:18:17;;;;;;;8.82;5.97;;;;;;;16.16;100.00;100665.22;5027883;28;20107;-78
2023/07/31 08:20:43;;;;;;;9.43;6.45;;;;;;;16.17;100.00;100656.28;5011347;28;20026;-77
2023/07/31 08:23:09;;;;;;;12.38;6.70;;;;;;;16.15;100.00;100658.25;5022650;28;20084;-77
2023/07/31 08:25:35;;;;;;;11.05;6.38;;;;;;;16.14;100.00;100661.91;5010311;28;20102;-75
2023/07/31 08:28:01;;;;;;;9.13;5.70;;;;;;;16.18;100.00;100665.09;5011039;28;20175;-76
2023/07/31 08:30:26;;;;;;;10.15;6.28;;;;;;;16.17;100.00;100656.28;5026915;28;20120;-76
2023/07/31 08:32:51;;;;;;;10.48;6.30;;;;;;;16.17;100.00;100661.59;5029656;28;20088;-75
2023/07/31 08:35:17;;;;;;;12.05;6.72;;;;;;;16.20;100.00;100657.78;5028536;28;20021;-76
2023/07/31 08:37:42;;;;;;;11.02;6.45;;;;;;;16.24;100.00;100657.34;5027414;28;20041;-76
2023/07/31 08:40:08;;;;;;;11.00;6.90;;;;;;;16.20;100.00;100655.97;5028738;28;20019;-76
2023/07/31 08:42:34;;;;;;;14.70;6.75;;;;;;;16.22;100.00;100654.00;5027133;28;20107;-76
2023/07/31 08:45:01;;;;;;;9.25;6.28;;;;;;;16.19;100.00;100664.09;5011147;28;20025;-77
2023/07/31 08:47:27;;;;;;;12.85;6.90;;;;;;;16.19;100.00;100654.31;5024505;28;20040;-77
2023/07/31 08:49:55;;;;;;;9.02;6.55;;;;;;;16.22;100.00;100659.31;5009607;28;20559;-76
2023/07/31 08:52:21;;;;;;;10.10;6.28;;;;;;;16.26;100.00;100655.34;5006566;28;20564;-77
2023/07/31 08:54:46;;;;;;;16.15;7.05;;;;;;;16.26;100.00;100644.72;5026792;28;20048;-76
2023/07/31 08:57:12;;;;;;;13.25;7.32;;;;;;;16.27;100.00;100651.72;5010624;28;20057;-76
2023/07/31 08:59:39;;;;;;;12.82;7.55;;;;;;;16.30;100.00;100646.09;5011047;28;20048;-77
2023/07/31 09:02:13;;;;;;;9.68;6.97;;;;;;;16.36;100.00;100644.63;5009543;28;20068;-77
2023/07/31 09:04:39;;;;;;;13.88;7.13;;;;;;;16.42;100.00;100644.03;5028186;28;20037;-77
2023/07/31 09:07:05;;;;;;;11.50;6.90;;;;;;;16.43;100.00;100650.19;5009886;28;20030;-77
2023/07/31 09:09:31;;;;;;;11.10;6.93;;;;;;;16.47;100.00;100655.00;5026474;28;20050;-77
2023/07/31 09:11:57;;;;;;;11.32;6.68;;;;;;;16.53;100.00;100650.91;5004225;28;20060;-76
2023/07/31 09:14:25;;;;;;;10.20;6.93;;;;;;;16.56;100.00;100650.59;5027348;28;20064;-77
2023/07/31 09:16:58;;;;;;;12.27;6.80;;;;;;;16.61;100.00;100648.28;5011460;28;20021;-77
2023/07/31 09:19:33;;;;;;;9.88;6.13;;;;;;;16.64;100.00;100642.66;5010308;28;20471;-76
2023/07/31 09:21:59;;;;;;;11.48;6.47;;;;;;;16.67;100.00;100638.88;5027490;28;20049;-76
2023/07/31 09:24:30;;;;;;;10.63;6.50;;;;;;;16.71;100.00;100638.41;5010895;28;20068;-77
2023/07/31 09:26:56;;;;;;;11.20;6.07;;;;;;;16.73;100.00;100631.09;5018825;28;20032;-76
2023/07/31 09:29:23;;;;;;;8.00;6.07;;;;;;;16.78;100.00;100634.13;5019899;28;20025;-77
2023/07/31 09:31:48;;;;;;;11.73;6.35;;;;;;;16.82;100.00;100638.16;5010794;28;20112;-77
2023/07/31 09:34:14;;;;;;;12.88;6.22;;;;;;;16.92;100.00;100630.88;5010964;28;20453;-77
2023/07/31 09:36:47;;;;;;;12.40;6.50;;;;;;;17.02;100.00;100635.22;5009651;28;20052;-76
2023/07/31 09:39:15;;;;;;;10.38;6.10;;;;;;;16.98;100.00;100633.88;5006949;28;20026;-77
2023/07/31 09:41:53;;;;;;;9.68;5.65;;;;;;;17.00;100.00;100637.22;5011296;28;20033;-76
2023/07/31 09:44:19;;;;;;;9.60;5.88;;;;;;;17.00;100.00;100637.22;5007056;28;20025;-76
2023/07/31 09:46:44;;;;;;;7.25;5.53;;;;;;;16.99;100.00;100630.22;5010622;28;20103;-77
2023/07/31 09:49:11;;;;;;;8.73;5.68;;;;;;;16.99;100.00;100630.22;5029589;28;20024;-76
2023/07/31 09:51:40;;;;;;;12.00;6.00;;;;;;;17.02;100.00;100629.91;5030175;28;20034;-77
2023/07/31 09:54:13;;;;;;;8.65;5.65;;;;;;;17.03;100.00;100624.44;5011361;28;20109;-77
2023/07/31 09:56:49;;;;;;;10.55;5.50;;;;;;;17.10;100.00;100621.97;4999438;28;20076;-77
2023/07/31 09:59:16;;;;;;;11.65;5.80;;;;;;;17.10;100.00;100622.78;4983976;28;20022;-77
2023/07/31 10:01:43;;;;;;;7.75;5.75;;;;;;;17.15;100.00;100620.47;5014956;28;20401;-77
2023/07/31 10:04:13;;;;;;;8.85;5.05;;;;;;;17.20;100.00;100618.16;5029058;28;20041;-77
2023/07/31 10:06:40;;;;;;;10.57;5.20;;;;;;;17.24;100.00;100618.69;5017836;28;20406;-78
2023/07/31 10:09:08;;;;;;;7.68;4.88;;;;;;;17.28;100.00;100619.19;5008763;28;20489;-77
2023/07/31 10:11:44;;;;;;;12.60;5.13;;;;;;;17.34;100.00;100614.06;5009574;28;20140;-77
2023/07/31 10:14:10;;;;;;;9.48;4.97;;;;;;;17.45;100.00;100616.41;5008727;28;20022;-78
2023/07/31 10:16:38;;;;;;;8.23;4.53;;;;;;;17.59;100.00;100606.09;4992121;28;20050;-78
2023/07/31 10:19:04;;;;;;;7.53;4.75;;;;;;;17.61;100.00;100610.28;5023949;28;20021;-78
2023/07/31 10:21:31;;;;;;;8.52;4.60;;;;;;;17.70;100.00;100603.19;5013737;28;20437;-78
2023/07/31 10:23:57;;;;;;;6.80;4.10;;;;;;;17.73;100.00;100606.34;5014636;28;20025;-77
2023/07/31 10:26:24;;;;;;;7.07;4.20;;;;;;;17.85;100.00;100615.66;5032212;28;20490;-78
2023/07/31 10:28:53;;;;;;;6.85;3.92;;;;;;;17.88;100.00;100614.47;5013740;28;20021;-78
2023/07/31 10:31:19;;;;;;;6.25;4.15;;;;;;;17.89;100.00;100608.16;5013688;28;20026;-78
2023/07/31 10:33:45;;;;;;;7.32;3.95;;;;;;;17.93;100.00;100609.47;5012797;28;20033;-78
2023/07/31 10:36:15;;;;;;;6.82;3.83;;;;;;;17.96;100.00;100614.47;5011975;28;20037;-78
2023/07/31 10:38:43;;;;;;;7.18;4.22;;;;;;;17.96;100.00;100618.97;5013564;28;20038;-79
2023/07/31 10:41:10;;;;;;;6.60;3.85;;;;;;;17.97;100.00;100618.78;5013254;28;20032;-79
2023/07/31 10:43:37;;;;;;;6.32;3.97;;;;;;;17.94;100.00;100623.63;5013124;28;20033;-79
2023/07/31 10:46:12;;;;;;;6.82;4.25;;;;;;;18.00;100.00;100623.78;5013239;28;20026;-79
2023/07/31 10:48:41;;;;;;;6.97;4.07;;;;;;;18.13;100.00;100616.16;5016747;28;20030;-78
2023/07/31 10:51:13;;;;;;;6.55;4.07;;;;;;;18.14;100.00;100616.97;5012897;28;20099;-79
2023/07/31 10:53:40;;;;;;;8.32;4.53;;;;;;;18.07;100.00;100611.50;4995637;28;20144;-79
2023/07/31 10:56:18;;;;;;;9.68;4.53;;;;;;;18.02;100.00;100621.00;5000076;28;20429;-80
2023/07/31 10:58:45;;;;;;;6.38;4.07;;;;;;;18.05;100.00;100607.34;4995265;28;20054;-80
2023/07/31 11:01:11;;;;;;;7.43;4.07;;;;;;;18.11;100.00;100612.00;5012672;28;20034;-79
2023/07/31 11:03:46;;;;;;;7.97;4.30;;;;;;;18.20;100.00;100596.81;5013269;28;20393;-79
2023/07/31 11:06:13;;;;;;;6.90;4.20;;;;;;;18.34;100.00;100606.78;5013363;28;20446;-79
2023/07/31 11:08:57;;;;;;;7.00;4.30;;;;;;;18.61;100.00;100603.72;4994574;28;20025;-79
2023/07/31 11:11:22;;;;;;;8.73;4.43;;;;;;;18.69;100.00;100605.56;5011537;28;20116;-79